sensor_id;sensor_type;location;lat;lon;timestamp;P1;durP1;ratioP1;P2;durP2;ratioP2
69878;SDS011;57161;43.136;24.706;2022-09-03T00:02:21;0.73;;;0.73;;
69878;SDS011;57161;43.136;24.706;2022-09-03T00:04:54;1.42;;;0.90;;
69878;SDS011;57161;43.136;24.706;2022-09-03T00:07:38;0.85;;;0.70;;
69878;SDS011;57161;43.136;24.706;2022-09-03T00:10:15;2.00;;;0.90;;
69878;SDS011;57161;43.136;24.706;2022-09-03T00:12:55;0.93;;;0.80;;
69878;SDS011;57161;43.136;24.706;2022-09-03T00:15:24;0.98;;;0.80;;
69878;SDS011;57161;43.136;24.706;2022-09-03T00:20:53;0.90;;;0.90;;
69878;SDS011;57161;43.136;24.706;2022-09-03T00:25:55;0.88;;;0.88;;
69878;SDS011;57161;43.136;24.706;2022-09-03T00:28:34;1.17;;;0.90;;
69878;SDS011;57161;43.136;24.706;2022-09-03T00:31:34;1.05;;;0.80;;
69878;SDS011;57161;43.136;24.706;2022-09-03T00:37:03;0.63;;;0.63;;
69878;SDS011;57161;43.136;24.706;2022-09-03T00:39:29;0.98;;;0.60;;
69878;SDS011;57161;43.136;24.706;2022-09-03T00:44:37;0.85;;;0.85;;
69878;SDS011;57161;43.136;24.706;2022-09-03T00:47:13;3.83;;;0.90;;
69878;SDS011;57161;43.136;24.706;2022-09-03T00:50:02;0.70;;;0.70;;
69878;SDS011;57161;43.136;24.706;2022-09-03T00:58:05;2.25;;;0.80;;
69878;SDS011;57161;43.136;24.706;2022-09-03T01:00:38;1.83;;;1.10;;
69878;SDS011;57161;43.136;24.706;2022-09-03T01:03:24;1.98;;;1.17;;
69878;SDS011;57161;43.136;24.706;2022-09-03T01:06:12;1.55;;;1.10;;
69878;SDS011;57161;43.136;24.706;2022-09-03T01:28:59;1.55;;;1.20;;
69878;SDS011;57161;43.136;24.706;2022-09-03T01:31:42;6.53;;;1.45;;
69878;SDS011;57161;43.136;24.706;2022-09-03T01:40:05;0.85;;;0.85;;
69878;SDS011;57161;43.136;24.706;2022-09-03T01:45:50;1.63;;;1.25;;
69878;SDS011;57161;43.136;24.706;2022-09-03T01:51:10;2.42;;;1.15;;
69878;SDS011;57161;43.136;24.706;2022-09-03T01:57:13;4.20;;;1.15;;
69878;SDS011;57161;43.136;24.706;2022-09-03T02:02:25;2.10;;;1.25;;
69878;SDS011;57161;43.136;24.706;2022-09-03T02:05:12;1.10;;;1.02;;
69878;SDS011;57161;43.136;24.706;2022-09-03T02:10:12;1.42;;;1.30;;
69878;SDS011;57161;43.136;24.706;2022-09-03T02:12:40;3.40;;;1.40;;
69878;SDS011;57161;43.136;24.706;2022-09-03T02:15:15;1.55;;;1.45;;
69878;SDS011;57161;43.136;24.706;2022-09-03T02:17:44;2.50;;;1.52;;
69878;SDS011;57161;43.136;24.706;2022-09-03T02:20:15;1.63;;;1.52;;
69878;SDS011;57161;43.136;24.706;2022-09-03T02:22:47;2.53;;;1.80;;
69878;SDS011;57161;43.136;24.706;2022-09-03T02:25:14;1.58;;;1.48;;
69878;SDS011;57161;43.136;24.706;2022-09-03T02:27:41;2.42;;;1.75;;
69878;SDS011;57161;43.136;24.706;2022-09-03T02:30:08;1.90;;;1.70;;
69878;SDS011;57161;43.136;24.706;2022-09-03T02:32:34;1.90;;;1.60;;
69878;SDS011;57161;43.136;24.706;2022-09-03T02:34:59;3.15;;;1.70;;
69878;SDS011;57161;43.136;24.706;2022-09-03T02:37:25;3.00;;;1.80;;
69878;SDS011;57161;43.136;24.706;2022-09-03T02:39:51;4.03;;;1.85;;
69878;SDS011;57161;43.136;24.706;2022-09-03T02:42:16;2.72;;;1.85;;
69878;SDS011;57161;43.136;24.706;2022-09-03T02:44:50;3.30;;;2.00;;
69878;SDS011;57161;43.136;24.706;2022-09-03T02:47:19;3.38;;;2.70;;
69878;SDS011;57161;43.136;24.706;2022-09-03T02:49:48;4.40;;;2.67;;
69878;SDS011;57161;43.136;24.706;2022-09-03T02:52:14;4.70;;;2.75;;
69878;SDS011;57161;43.136;24.706;2022-09-03T02:54:39;4.10;;;3.00;;
69878;SDS011;57161;43.136;24.706;2022-09-03T02:57:09;5.50;;;3.50;;
69878;SDS011;57161;43.136;24.706;2022-09-03T02:59:39;4.95;;;4.05;;
69878;SDS011;57161;43.136;24.706;2022-09-03T03:02:06;4.25;;;3.70;;
69878;SDS011;57161;43.136;24.706;2022-09-03T03:04:32;5.88;;;3.85;;
69878;SDS011;57161;43.136;24.706;2022-09-03T03:06:57;4.38;;;3.97;;
69878;SDS011;57161;43.136;24.706;2022-09-03T03:09:23;4.22;;;3.72;;
69878;SDS011;57161;43.136;24.706;2022-09-03T03:11:49;5.72;;;4.30;;
69878;SDS011;57161;43.136;24.706;2022-09-03T03:14:15;4.10;;;3.70;;
69878;SDS011;57161;43.136;24.706;2022-09-03T03:16:41;6.03;;;3.63;;
69878;SDS011;57161;43.136;24.706;2022-09-03T03:19:07;4.85;;;3.85;;
69878;SDS011;57161;43.136;24.706;2022-09-03T03:21:33;5.40;;;4.50;;
69878;SDS011;57161;43.136;24.706;2022-09-03T03:23:59;6.90;;;4.40;;
69878;SDS011;57161;43.136;24.706;2022-09-03T03:26:26;7.97;;;4.90;;
69878;SDS011;57161;43.136;24.706;2022-09-03T03:28:54;5.63;;;4.82;;
69878;SDS011;57161;43.136;24.706;2022-09-03T03:31:21;7.60;;;4.93;;
69878;SDS011;57161;43.136;24.706;2022-09-03T03:33:54;7.63;;;4.78;;
69878;SDS011;57161;43.136;24.706;2022-09-03T03:36:21;5.82;;;4.90;;
69878;SDS011;57161;43.136;24.706;2022-09-03T03:38:48;5.65;;;5.00;;
69878;SDS011;57161;43.136;24.706;2022-09-03T03:41:18;7.55;;;4.53;;
69878;SDS011;57161;43.136;24.706;2022-09-03T03:43:46;7.10;;;4.95;;
69878;SDS011;57161;43.136;24.706;2022-09-03T03:46:12;5.28;;;4.60;;
69878;SDS011;57161;43.136;24.706;2022-09-03T03:48:41;6.10;;;4.97;;
69878;SDS011;57161;43.136;24.706;2022-09-03T03:51:07;5.38;;;4.82;;
69878;SDS011;57161;43.136;24.706;2022-09-03T03:53:33;6.72;;;4.80;;
69878;SDS011;57161;43.136;24.706;2022-09-03T03:56:01;8.55;;;5.32;;
69878;SDS011;57161;43.136;24.706;2022-09-03T03:58:29;6.75;;;5.38;;
69878;SDS011;57161;43.136;24.706;2022-09-03T04:01:02;7.35;;;4.88;;
69878;SDS011;57161;43.136;24.706;2022-09-03T04:03:35;8.32;;;4.88;;
69878;SDS011;57161;43.136;24.706;2022-09-03T04:06:02;6.82;;;5.38;;
69878;SDS011;57161;43.136;24.706;2022-09-03T04:08:29;8.52;;;5.30;;
69878;SDS011;57161;43.136;24.706;2022-09-03T04:10:58;5.13;;;4.38;;
69878;SDS011;57161;43.136;24.706;2022-09-03T04:13:28;6.75;;;4.72;;
69878;SDS011;57161;43.136;24.706;2022-09-03T04:18:33;7.13;;;4.82;;
69878;SDS011;57161;43.136;24.706;2022-09-03T04:21:03;5.28;;;4.75;;
69878;SDS011;57161;43.136;24.706;2022-09-03T04:23:35;8.02;;;4.72;;
69878;SDS011;57161;43.136;24.706;2022-09-03T04:26:02;7.63;;;5.03;;
69878;SDS011;57161;43.136;24.706;2022-09-03T04:28:28;8.07;;;5.10;;
69878;SDS011;57161;43.136;24.706;2022-09-03T04:30:54;6.03;;;5.05;;
69878;SDS011;57161;43.136;24.706;2022-09-03T04:33:24;6.47;;;4.60;;
69878;SDS011;57161;43.136;24.706;2022-09-03T04:35:49;6.28;;;4.93;;
69878;SDS011;57161;43.136;24.706;2022-09-03T04:38:15;7.95;;;4.80;;
69878;SDS011;57161;43.136;24.706;2022-09-03T04:40:41;5.95;;;4.68;;
69878;SDS011;57161;43.136;24.706;2022-09-03T04:43:06;7.35;;;5.07;;
69878;SDS011;57161;43.136;24.706;2022-09-03T04:45:32;6.05;;;4.35;;
69878;SDS011;57161;43.136;24.706;2022-09-03T04:47:58;7.72;;;4.53;;
69878;SDS011;57161;43.136;24.706;2022-09-03T04:50:27;5.55;;;4.55;;
69878;SDS011;57161;43.136;24.706;2022-09-03T04:53:00;6.60;;;5.25;;
69878;SDS011;57161;43.136;24.706;2022-09-03T04:55:27;7.05;;;4.72;;
69878;SDS011;57161;43.136;24.706;2022-09-03T04:57:57;7.03;;;5.03;;
69878;SDS011;57161;43.136;24.706;2022-09-03T05:00:23;5.38;;;4.60;;
69878;SDS011;57161;43.136;24.706;2022-09-03T05:02:49;7.07;;;4.85;;
69878;SDS011;57161;43.136;24.706;2022-09-03T05:05:16;5.00;;;4.50;;
69878;SDS011;57161;43.136;24.706;2022-09-03T05:07:42;6.65;;;4.22;;
69878;SDS011;57161;43.136;24.706;2022-09-03T05:10:09;7.32;;;4.55;;
69878;SDS011;57161;43.136;24.706;2022-09-03T05:12:40;6.63;;;4.45;;
69878;SDS011;57161;43.136;24.706;2022-09-03T05:15:06;7.30;;;4.38;;
69878;SDS011;57161;43.136;24.706;2022-09-03T05:17:32;9.05;;;4.50;;
69878;SDS011;57161;43.136;24.706;2022-09-03T05:19:57;6.53;;;4.55;;
69878;SDS011;57161;43.136;24.706;2022-09-03T05:22:23;6.85;;;4.70;;
69878;SDS011;57161;43.136;24.706;2022-09-03T05:24:48;8.50;;;4.70;;
69878;SDS011;57161;43.136;24.706;2022-09-03T05:27:14;11.27;;;4.63;;
69878;SDS011;57161;43.136;24.706;2022-09-03T05:29:43;6.15;;;4.45;;
69878;SDS011;57161;43.136;24.706;2022-09-03T05:32:09;4.88;;;4.22;;
69878;SDS011;57161;43.136;24.706;2022-09-03T05:34:37;6.10;;;4.35;;
69878;SDS011;57161;43.136;24.706;2022-09-03T05:37:03;6.55;;;4.53;;
69878;SDS011;57161;43.136;24.706;2022-09-03T05:39:28;7.55;;;4.05;;
69878;SDS011;57161;43.136;24.706;2022-09-03T05:41:54;8.68;;;5.07;;
69878;SDS011;57161;43.136;24.706;2022-09-03T05:44:19;6.40;;;4.28;;
69878;SDS011;57161;43.136;24.706;2022-09-03T05:46:48;4.72;;;3.60;;
69878;SDS011;57161;43.136;24.706;2022-09-03T05:49:15;5.45;;;3.80;;
69878;SDS011;57161;43.136;24.706;2022-09-03T05:51:41;9.50;;;4.60;;
69878;SDS011;57161;43.136;24.706;2022-09-03T05:54:07;5.65;;;4.20;;
69878;SDS011;57161;43.136;24.706;2022-09-03T05:56:34;9.70;;;4.28;;
69878;SDS011;57161;43.136;24.706;2022-09-03T05:59:03;4.65;;;4.03;;
69878;SDS011;57161;43.136;24.706;2022-09-03T06:01:32;5.25;;;4.00;;
69878;SDS011;57161;43.136;24.706;2022-09-03T06:06:26;4.35;;;3.78;;
69878;SDS011;57161;43.136;24.706;2022-09-03T06:08:56;5.78;;;3.55;;
69878;SDS011;57161;43.136;24.706;2022-09-03T06:11:24;7.75;;;3.90;;
69878;SDS011;57161;43.136;24.706;2022-09-03T06:13:52;5.80;;;4.00;;
69878;SDS011;57161;43.136;24.706;2022-09-03T06:16:18;5.65;;;4.40;;
69878;SDS011;57161;43.136;24.706;2022-09-03T06:18:43;8.50;;;4.60;;
69878;SDS011;57161;43.136;24.706;2022-09-03T06:21:09;7.63;;;4.00;;
69878;SDS011;57161;43.136;24.706;2022-09-03T06:23:34;6.20;;;4.18;;
69878;SDS011;57161;43.136;24.706;2022-09-03T06:26:04;6.47;;;4.13;;
69878;SDS011;57161;43.136;24.706;2022-09-03T06:28:35;9.95;;;5.30;;
69878;SDS011;57161;43.136;24.706;2022-09-03T06:31:03;7.18;;;3.72;;
69878;SDS011;57161;43.136;24.706;2022-09-03T06:33:31;7.43;;;4.50;;
69878;SDS011;57161;43.136;24.706;2022-09-03T06:35:58;5.97;;;4.10;;
69878;SDS011;57161;43.136;24.706;2022-09-03T06:38:26;6.53;;;4.45;;
69878;SDS011;57161;43.136;24.706;2022-09-03T06:40:56;5.93;;;4.20;;
69878;SDS011;57161;43.136;24.706;2022-09-03T06:43:27;5.97;;;4.20;;
69878;SDS011;57161;43.136;24.706;2022-09-03T06:48:25;7.60;;;4.30;;
69878;SDS011;57161;43.136;24.706;2022-09-03T06:53:21;6.82;;;4.10;;
69878;SDS011;57161;43.136;24.706;2022-09-03T06:55:57;6.65;;;4.10;;
69878;SDS011;57161;43.136;24.706;2022-09-03T06:58:31;5.43;;;3.95;;
69878;SDS011;57161;43.136;24.706;2022-09-03T07:01:03;5.50;;;4.13;;
69878;SDS011;57161;43.136;24.706;2022-09-03T07:03:33;5.13;;;4.28;;
69878;SDS011;57161;43.136;24.706;2022-09-03T07:06:07;4.97;;;3.70;;
69878;SDS011;57161;43.136;24.706;2022-09-03T07:08:34;5.30;;;4.03;;
69878;SDS011;57161;43.136;24.706;2022-09-03T07:11:04;4.32;;;3.78;;
69878;SDS011;57161;43.136;24.706;2022-09-03T07:13:35;6.50;;;4.70;;
69878;SDS011;57161;43.136;24.706;2022-09-03T07:18:32;5.57;;;3.92;;
69878;SDS011;57161;43.136;24.706;2022-09-03T07:21:03;4.25;;;3.70;;
69878;SDS011;57161;43.136;24.706;2022-09-03T07:23:31;5.22;;;4.20;;
69878;SDS011;57161;43.136;24.706;2022-09-03T07:26:01;4.75;;;3.90;;
69878;SDS011;57161;43.136;24.706;2022-09-03T07:28:29;8.05;;;4.55;;
69878;SDS011;57161;43.136;24.706;2022-09-03T07:33:40;7.88;;;4.20;;
69878;SDS011;57161;43.136;24.706;2022-09-03T07:36:10;4.85;;;3.67;;
69878;SDS011;57161;43.136;24.706;2022-09-03T07:38:40;5.82;;;4.22;;
69878;SDS011;57161;43.136;24.706;2022-09-03T07:41:08;4.50;;;3.72;;
69878;SDS011;57161;43.136;24.706;2022-09-03T07:43:38;7.88;;;4.45;;
69878;SDS011;57161;43.136;24.706;2022-09-03T07:46:07;7.30;;;3.92;;
69878;SDS011;57161;43.136;24.706;2022-09-03T07:48:37;6.93;;;4.10;;
69878;SDS011;57161;43.136;24.706;2022-09-03T07:51:05;5.38;;;3.85;;
69878;SDS011;57161;43.136;24.706;2022-09-03T07:53:31;6.65;;;4.35;;
69878;SDS011;57161;43.136;24.706;2022-09-03T07:56:04;4.65;;;3.90;;
69878;SDS011;57161;43.136;24.706;2022-09-03T07:58:32;5.45;;;4.03;;
69878;SDS011;57161;43.136;24.706;2022-09-03T08:00:58;5.05;;;3.88;;
69878;SDS011;57161;43.136;24.706;2022-09-03T08:03:28;8.77;;;4.28;;
69878;SDS011;57161;43.136;24.706;2022-09-03T08:05:53;4.85;;;4.10;;
69878;SDS011;57161;43.136;24.706;2022-09-03T08:08:24;5.35;;;4.22;;
69878;SDS011;57161;43.136;24.706;2022-09-03T08:10:49;4.68;;;4.00;;
69878;SDS011;57161;43.136;24.706;2022-09-03T08:13:15;9.80;;;3.97;;
69878;SDS011;57161;43.136;24.706;2022-09-03T08:15:40;5.10;;;3.75;;
69878;SDS011;57161;43.136;24.706;2022-09-03T08:18:06;7.55;;;4.07;;
69878;SDS011;57161;43.136;24.706;2022-09-03T08:20:32;5.05;;;3.95;;
69878;SDS011;57161;43.136;24.706;2022-09-03T08:23:01;3.88;;;3.50;;
69878;SDS011;57161;43.136;24.706;2022-09-03T08:25:27;7.68;;;4.07;;
69878;SDS011;57161;43.136;24.706;2022-09-03T08:27:53;4.97;;;3.97;;
69878;SDS011;57161;43.136;24.706;2022-09-03T08:30:18;5.00;;;3.88;;
69878;SDS011;57161;43.136;24.706;2022-09-03T08:32:45;4.85;;;3.78;;
69878;SDS011;57161;43.136;24.706;2022-09-03T08:35:11;5.15;;;4.30;;
69878;SDS011;57161;43.136;24.706;2022-09-03T08:37:37;4.68;;;3.83;;
69878;SDS011;57161;43.136;24.706;2022-09-03T08:40:03;5.20;;;3.60;;
69878;SDS011;57161;43.136;24.706;2022-09-03T08:44:59;6.13;;;3.70;;
69878;SDS011;57161;43.136;24.706;2022-09-03T08:52:51;5.30;;;4.00;;
69878;SDS011;57161;43.136;24.706;2022-09-03T08:55:22;4.80;;;3.92;;
69878;SDS011;57161;43.136;24.706;2022-09-03T09:06:22;5.13;;;3.88;;
69878;SDS011;57161;43.136;24.706;2022-09-03T09:09:41;5.93;;;4.00;;
69878;SDS011;57161;43.136;24.706;2022-09-03T09:15:06;5.30;;;4.22;;
69878;SDS011;57161;43.136;24.706;2022-09-03T09:20:23;4.05;;;3.65;;
69878;SDS011;57161;43.136;24.706;2022-09-03T09:22:59;4.80;;;4.30;;
69878;SDS011;57161;43.136;24.706;2022-09-03T09:25:33;6.35;;;4.40;;
69878;SDS011;57161;43.136;24.706;2022-09-03T09:30:41;8.68;;;4.60;;
69878;SDS011;57161;43.136;24.706;2022-09-03T09:33:08;5.45;;;4.47;;
69878;SDS011;57161;43.136;24.706;2022-09-03T09:35:34;5.10;;;4.60;;
69878;SDS011;57161;43.136;24.706;2022-09-03T09:37:59;5.07;;;4.18;;
69878;SDS011;57161;43.136;24.706;2022-09-03T09:40:29;5.35;;;4.45;;
69878;SDS011;57161;43.136;24.706;2022-09-03T09:43:05;8.57;;;4.97;;
69878;SDS011;57161;43.136;24.706;2022-09-03T09:45:47;5.15;;;4.55;;
69878;SDS011;57161;43.136;24.706;2022-09-03T09:53:30;6.03;;;4.97;;
69878;SDS011;57161;43.136;24.706;2022-09-03T09:55:56;5.82;;;5.20;;
69878;SDS011;57161;43.136;24.706;2022-09-03T09:58:23;9.73;;;4.93;;
69878;SDS011;57161;43.136;24.706;2022-09-03T10:00:58;5.35;;;4.80;;
69878;SDS011;57161;43.136;24.706;2022-09-03T10:03:38;5.75;;;4.60;;
69878;SDS011;57161;43.136;24.706;2022-09-03T10:06:12;5.30;;;4.35;;
69878;SDS011;57161;43.136;24.706;2022-09-03T10:09:11;7.55;;;4.68;;
69878;SDS011;57161;43.136;24.706;2022-09-03T10:11:49;12.00;;;6.07;;
69878;SDS011;57161;43.136;24.706;2022-09-03T10:14:24;7.78;;;6.03;;
69878;SDS011;57161;43.136;24.706;2022-09-03T10:19:59;9.77;;;7.25;;
69878;SDS011;57161;43.136;24.706;2022-09-03T10:22:51;8.48;;;7.60;;
69878;SDS011;57161;43.136;24.706;2022-09-03T10:25:20;10.45;;;7.45;;
69878;SDS011;57161;43.136;24.706;2022-09-03T10:27:49;9.35;;;8.00;;
69878;SDS011;57161;43.136;24.706;2022-09-03T10:30:18;12.18;;;7.45;;
69878;SDS011;57161;43.136;24.706;2022-09-03T10:35:31;9.98;;;7.60;;
69878;SDS011;57161;43.136;24.706;2022-09-03T10:40:41;10.63;;;7.57;;
69878;SDS011;57161;43.136;24.706;2022-09-03T10:56:16;8.85;;;6.63;;
69878;SDS011;57161;43.136;24.706;2022-09-03T11:06:59;8.55;;;6.68;;
69878;SDS011;57161;43.136;24.706;2022-09-03T11:09:38;9.13;;;6.80;;
69878;SDS011;57161;43.136;24.706;2022-09-03T11:14:49;9.52;;;6.60;;
69878;SDS011;57161;43.136;24.706;2022-09-03T11:17:37;9.50;;;6.50;;
69878;SDS011;57161;43.136;24.706;2022-09-03T11:20:13;7.32;;;6.60;;
69878;SDS011;57161;43.136;24.706;2022-09-03T11:22:44;7.00;;;5.97;;
69878;SDS011;57161;43.136;24.706;2022-09-03T11:25:12;9.18;;;6.30;;
69878;SDS011;57161;43.136;24.706;2022-09-03T11:30:57;10.40;;;6.68;;
69878;SDS011;57161;43.136;24.706;2022-09-03T11:33:31;7.15;;;6.45;;
69878;SDS011;57161;43.136;24.706;2022-09-03T11:35:59;7.68;;;6.88;;
69878;SDS011;57161;43.136;24.706;2022-09-03T11:38:27;8.90;;;7.15;;
69878;SDS011;57161;43.136;24.706;2022-09-03T11:43:49;6.88;;;6.18;;
69878;SDS011;57161;43.136;24.706;2022-09-03T11:48:51;6.10;;;5.50;;
69878;SDS011;57161;43.136;24.706;2022-09-03T11:54:22;8.15;;;5.70;;
69878;SDS011;57161;43.136;24.706;2022-09-03T11:56:50;6.28;;;5.68;;
69878;SDS011;57161;43.136;24.706;2022-09-03T11:59:30;7.75;;;5.53;;
69878;SDS011;57161;43.136;24.706;2022-09-03T12:04:23;6.70;;;5.30;;
69878;SDS011;57161;43.136;24.706;2022-09-03T12:13:16;7.45;;;4.80;;
69878;SDS011;57161;43.136;24.706;2022-09-03T12:18:46;7.20;;;5.82;;
69878;SDS011;57161;43.136;24.706;2022-09-03T12:21:16;7.97;;;5.38;;
69878;SDS011;57161;43.136;24.706;2022-09-03T12:23:44;6.05;;;5.45;;
69878;SDS011;57161;43.136;24.706;2022-09-03T12:28:49;10.23;;;6.15;;
69878;SDS011;57161;43.136;24.706;2022-09-03T12:31:23;8.50;;;6.00;;
69878;SDS011;57161;43.136;24.706;2022-09-03T12:34:00;7.90;;;6.15;;
69878;SDS011;57161;43.136;24.706;2022-09-03T12:39:14;6.55;;;5.70;;
69878;SDS011;57161;43.136;24.706;2022-09-03T12:42:10;11.98;;;5.93;;
69878;SDS011;57161;43.136;24.706;2022-09-03T12:44:39;9.05;;;6.78;;
69878;SDS011;57161;43.136;24.706;2022-09-03T12:47:15;7.25;;;6.55;;
69878;SDS011;57161;43.136;24.706;2022-09-03T12:49:44;9.18;;;7.25;;
69878;SDS011;57161;43.136;24.706;2022-09-03T12:52:24;9.43;;;7.63;;
69878;SDS011;57161;43.136;24.706;2022-09-03T12:54:53;8.90;;;7.20;;
69878;SDS011;57161;43.136;24.706;2022-09-03T12:57:44;8.40;;;7.43;;
69878;SDS011;57161;43.136;24.706;2022-09-03T13:00:15;8.43;;;7.22;;
69878;SDS011;57161;43.136;24.706;2022-09-03T13:02:57;8.10;;;7.30;;
69878;SDS011;57161;43.136;24.706;2022-09-03T13:08:28;9.93;;;7.20;;
69878;SDS011;57161;43.136;24.706;2022-09-03T13:11:00;9.63;;;7.75;;
69878;SDS011;57161;43.136;24.706;2022-09-03T13:13:30;8.43;;;7.63;;
69878;SDS011;57161;43.136;24.706;2022-09-03T13:18:45;8.00;;;7.20;;
69878;SDS011;57161;43.136;24.706;2022-09-03T13:27:08;7.80;;;7.00;;
69878;SDS011;57161;43.136;24.706;2022-09-03T13:30:04;8.40;;;7.03;;
69878;SDS011;57161;43.136;24.706;2022-09-03T13:32:41;7.72;;;6.93;;
69878;SDS011;57161;43.136;24.706;2022-09-03T13:38:04;7.80;;;7.00;;
69878;SDS011;57161;43.136;24.706;2022-09-03T13:40:57;8.77;;;6.78;;
69878;SDS011;57161;43.136;24.706;2022-09-03T13:43:34;9.38;;;7.50;;
69878;SDS011;57161;43.136;24.706;2022-09-03T13:46:10;11.82;;;7.60;;
69878;SDS011;57161;43.136;24.706;2022-09-03T13:48:42;10.00;;;7.53;;
69878;SDS011;57161;43.136;24.706;2022-09-03T13:51:36;8.68;;;7.32;;
69878;SDS011;57161;43.136;24.706;2022-09-03T13:54:14;9.27;;;7.28;;
69878;SDS011;57161;43.136;24.706;2022-09-03T13:56:57;8.75;;;7.85;;
69878;SDS011;57161;43.136;24.706;2022-09-03T14:00:00;8.50;;;7.60;;
69878;SDS011;57161;43.136;24.706;2022-09-03T14:18:58;12.48;;;9.30;;
69878;SDS011;57161;43.136;24.706;2022-09-03T14:27:21;11.23;;;9.95;;
69878;SDS011;57161;43.136;24.706;2022-09-03T14:29:35;12.38;;;10.38;;
69878;SDS011;57161;43.136;24.706;2022-09-03T14:32:08;11.27;;;9.75;;
69878;SDS011;57161;43.136;24.706;2022-09-03T14:40:32;10.98;;;9.77;;
69878;SDS011;57161;43.136;24.706;2022-09-03T14:45:45;11.48;;;10.20;;
69878;SDS011;57161;43.136;24.706;2022-09-03T14:53:34;9.73;;;8.82;;
69878;SDS011;57161;43.136;24.706;2022-09-03T14:56:16;11.95;;;8.93;;
69878;SDS011;57161;43.136;24.706;2022-09-03T14:59:33;9.88;;;8.05;;
69878;SDS011;57161;43.136;24.706;2022-09-03T15:01:39;11.68;;;9.45;;
69878;SDS011;57161;43.136;24.706;2022-09-03T15:10:02;10.63;;;9.63;;
69878;SDS011;57161;43.136;24.706;2022-09-03T15:15:30;13.30;;;9.75;;
69878;SDS011;57161;43.136;24.706;2022-09-03T15:20:48;10.48;;;9.38;;
69878;SDS011;57161;43.136;24.706;2022-09-03T15:23:22;12.50;;;9.80;;
69878;SDS011;57161;43.136;24.706;2022-09-03T15:32:24;13.35;;;9.00;;
69878;SDS011;57161;43.136;24.706;2022-09-03T15:37:44;11.13;;;9.93;;
69878;SDS011;57161;43.136;24.706;2022-09-03T15:42:51;13.93;;;10.90;;
69878;SDS011;57161;43.136;24.706;2022-09-03T15:48:12;10.90;;;9.80;;
69878;SDS011;57161;43.136;24.706;2022-09-03T15:50:48;12.27;;;10.60;;
69878;SDS011;57161;43.136;24.706;2022-09-03T15:53:32;14.18;;;10.48;;
69878;SDS011;57161;43.136;24.706;2022-09-03T15:56:18;11.60;;;10.40;;
69878;SDS011;57161;43.136;24.706;2022-09-03T16:01:58;13.90;;;10.00;;
69878;SDS011;57161;43.136;24.706;2022-09-03T16:10:13;12.40;;;10.57;;
69878;SDS011;57161;43.136;24.706;2022-09-03T16:15:39;11.68;;;9.75;;
69878;SDS011;57161;43.136;24.706;2022-09-03T16:20:59;10.38;;;9.27;;
69878;SDS011;57161;43.136;24.706;2022-09-03T16:23:46;10.52;;;8.93;;
69878;SDS011;57161;43.136;24.706;2022-09-03T16:29:12;12.23;;;9.02;;
69878;SDS011;57161;43.136;24.706;2022-09-03T16:34:48;14.48;;;9.80;;
69878;SDS011;57161;43.136;24.706;2022-09-03T16:40:21;16.20;;;11.15;;
69878;SDS011;57161;43.136;24.706;2022-09-03T16:51:32;14.38;;;11.30;;
69878;SDS011;57161;43.136;24.706;2022-09-03T16:54:10;15.25;;;10.35;;
69878;SDS011;57161;43.136;24.706;2022-09-03T17:18:36;18.48;;;12.05;;
69878;SDS011;57161;43.136;24.706;2022-09-03T17:51:02;14.10;;;10.18;;
69878;SDS011;57161;43.136;24.706;2022-09-03T17:53:37;16.48;;;10.45;;
69878;SDS011;57161;43.136;24.706;2022-09-03T17:56:05;12.95;;;10.52;;
69878;SDS011;57161;43.136;24.706;2022-09-03T18:01:23;15.02;;;10.98;;
69878;SDS011;57161;43.136;24.706;2022-09-03T18:09:08;15.95;;;11.00;;
69878;SDS011;57161;43.136;24.706;2022-09-03T18:11:45;15.90;;;11.30;;
69878;SDS011;57161;43.136;24.706;2022-09-03T18:14:19;16.65;;;11.70;;
69878;SDS011;57161;43.136;24.706;2022-09-03T19:50:21;22.90;;;14.93;;
69878;SDS011;57161;43.136;24.706;2022-09-03T19:53:12;22.40;;;13.82;;
69878;SDS011;57161;43.136;24.706;2022-09-03T19:56:04;19.25;;;14.55;;
69878;SDS011;57161;43.136;24.706;2022-09-03T19:59:00;20.77;;;15.13;;
69878;SDS011;57161;43.136;24.706;2022-09-03T20:01:49;22.33;;;14.98;;
69878;SDS011;57161;43.136;24.706;2022-09-03T20:09:45;22.58;;;15.32;;
